South Bend, Nebraska
Current Conditions -  °F | °C
As of 9:55 PM on Sunday 23 Nov 2014 (Local Time) from KMLE Reporting Station
Overcast Overcast  
Wind Chill: -2°   Ceiling: 3800
Heat Index:   Visibility: 10mi
Dew Point: -3°   Wind: 28mph
Humidity: 57%   Direction: 320°NW
Pressure: 29.55"   Gusts: 38mph
Location:  41°N, 96.25°W
Report Text: KMLE 240355Z AUTO 32024G33KT 10SM BKN038 OVC045 05/M03 A2955 RMK AO2 T00451033
Loading
Personal Weather Stations






























Interactive Weather Map New forecast layout! Learn more

10-Day Weather Forecast

Advertisements
Track Severe Weather on mobile